Time;durP1;ratioP1;P1;durP2;ratioP2;P2;SDS_P1;SDS_P2;PMS_P1;PMS_P2;Temp;Humidity;BMP_temperature;BMP_pressure;BME280_temperature;BME280_humidity;BME280_pressure;Samples;Min_cycle;Max_cycle;Signal;HPM_P1;HPM_P2
2022/01/20 00:01:45;;;;;;;25.00;4.63;;;;;;;3.12;100.00;102506.59;5094328;28;20361;-36
2022/01/20 00:04:17;;;;;;;22.05;4.47;;;;;;;3.02;100.00;102487.06;5094300;28;20023;-36
2022/01/20 00:28:20;;;;;;;26.90;5.10;;;;;;;3.14;100.00;102510.00;5094128;28;20059;-36
2022/01/20 00:31:02;;;;;;;22.48;4.00;;;;;;;3.18;100.00;102502.56;5094139;28;20437;-36
2022/01/20 00:39:00;;;;;;;16.27;3.70;;;;;;;3.23;100.00;102505.63;5031760;28;20033;-36
2022/01/20 00:41:25;;;;;;;22.13;3.77;;;;;;;3.28;100.00;102522.94;5031352;28;20075;-36
2022/01/20 00:43:51;;;;;;;22.73;4.77;;;;;;;3.27;100.00;102515.91;5031381;28;20116;-36
2022/01/20 00:46:16;;;;;;;15.90;3.23;;;;;;;3.28;100.00;102520.25;5031620;28;20064;-36
2022/01/20 00:48:41;;;;;;;19.13;3.10;;;;;;;3.30;100.00;102510.25;5030974;28;20129;-36
2022/01/20 00:51:08;;;;;;;21.97;3.93;;;;;;;3.32;100.00;102513.66;5030575;28;20033;-36
2022/01/20 00:53:34;;;;;;;20.95;3.80;;;;;;;3.32;100.00;102519.00;5031062;28;20041;-36
2022/01/20 00:55:59;;;;;;;14.53;3.57;;;;;;;3.35;100.00;102523.19;5031489;28;20087;-36
2022/01/20 00:58:24;;;;;;;27.47;4.43;;;;;;;3.28;100.00;102508.72;5030815;28;20033;-36
2022/01/20 01:00:50;;;;;;;17.20;3.43;;;;;;;3.41;100.00;102527.13;5031241;28;20065;-36
2022/01/20 01:03:15;;;;;;;26.07;4.17;;;;;;;3.33;100.00;102520.69;5030732;28;20029;-36
2022/01/20 01:05:56;;;;;;;20.23;3.67;;;;;;;3.40;100.00;102514.75;5030678;28;20559;-36
2022/01/20 01:08:22;;;;;;;21.10;4.53;;;;;;;3.29;100.00;102516.59;5031419;28;20117;-36
2022/01/20 01:10:50;;;;;;;17.23;3.20;;;;;;;3.40;100.00;102523.63;5031202;28;20549;-36
2022/01/20 01:13:17;;;;;;;22.45;4.50;;;;;;;3.30;100.00;102528.97;5065639;28;20127;-36
2022/01/20 01:15:46;;;;;;;21.25;4.00;;;;;;;3.33;100.00;102542.06;5093220;28;20031;-36
2022/01/20 01:23:25;;;;;;;18.50;5.27;;;;;;;3.32;100.00;102545.75;5093032;28;20036;-36
2022/01/20 01:25:51;;;;;;;23.83;3.22;;;;;;;3.31;100.00;102538.69;5093513;28;20024;-36
2022/01/20 01:28:18;;;;;;;14.57;3.50;;;;;;;3.32;100.00;102542.22;5092638;28;20051;-36
2022/01/20 01:33:09;;;;;;;22.10;4.07;;;;;;;3.30;100.00;102531.66;5092921;28;20036;-36
2022/01/20 01:35:39;;;;;;;17.58;3.50;;;;;;;3.36;100.00;102531.06;5093575;28;20364;-36
2022/01/20 01:40:30;;;;;;;20.37;3.20;;;;;;;3.36;100.00;102522.22;5093485;28;20334;-36
2022/01/20 01:42:56;;;;;;;17.05;3.40;;;;;;;3.35;100.00;102520.53;5092425;28;20391;-36
2022/01/20 01:45:35;;;;;;;18.70;3.15;;;;;;;3.35;100.00;102528.53;5092474;28;20043;-36
2022/01/20 01:48:02;;;;;;;16.02;2.95;;;;;;;3.34;100.00;102527.72;5092790;28;20090;-36
2022/01/20 01:50:29;;;;;;;17.38;3.90;;;;;;;3.34;100.00;102526.88;5092913;28;20070;-36
2022/01/20 01:52:56;;;;;;;18.85;4.25;;;;;;;3.34;100.00;102530.38;5092755;28;20028;-36
2022/01/20 01:55:22;;;;;;;13.70;2.33;;;;;;;3.25;100.00;102520.53;5092680;28;20131;-36
2022/01/20 01:57:49;;;;;;;23.40;3.38;;;;;;;3.33;100.00;102533.22;5092443;28;20056;-36
2022/01/20 02:00:15;;;;;;;22.33;3.30;;;;;;;3.32;100.00;102532.38;5092736;28;20115;-36
2022/01/20 02:02:43;;;;;;;17.77;3.75;;;;;;;3.29;100.00;102531.81;5094387;28;20029;-36
2022/01/20 02:05:11;;;;;;;19.58;3.53;;;;;;;3.09;100.00;102501.56;5096911;28;20444;-36
2022/01/20 02:18:46;;;;;;;15.63;2.88;;;;;;;3.23;100.00;102538.56;5096407;28;20066;-36
2022/01/20 02:21:12;;;;;;;17.75;2.50;;;;;;;3.25;100.00;102538.41;5096094;28;20071;-36
2022/01/20 02:23:37;;;;;;;14.70;3.75;;;;;;;3.25;100.00;102536.56;5096904;28;20055;-36
2022/01/20 02:26:03;;;;;;;16.10;3.73;;;;;;;3.27;100.00;102531.06;5096514;28;20515;-36
2022/01/20 02:28:28;;;;;;;16.50;3.42;;;;;;;3.40;100.00;102545.00;5096060;28;20048;-36
2022/01/20 02:30:54;;;;;;;14.82;3.33;;;;;;;3.22;100.00;102507.47;5095938;28;20055;-36
2022/01/20 02:33:22;;;;;;;16.73;3.20;;;;;;;3.46;100.00;102551.63;5096615;28;20091;-36
2022/01/20 02:35:58;;;;;;;20.88;3.40;;;;;;;3.47;100.00;102540.78;5096350;28;20024;-36
2022/01/20 02:46:18;;;;;;;7.63;1.90;;;;;;;3.52;100.00;102527.84;5095905;28;20043;-37
2022/01/20 02:48:43;;;;;;;13.53;3.07;;;;;;;3.52;100.00;102525.16;5095936;28;20032;-36
2022/01/20 02:51:09;;;;;;;9.90;2.30;;;;;;;3.51;100.00;102534.16;5095981;28;20039;-36
2022/01/20 02:53:34;;;;;;;10.45;2.58;;;;;;;3.51;100.00;102523.44;5095527;28;20067;-36
2022/01/20 02:56:00;;;;;;;17.57;3.03;;;;;;;3.51;100.00;102523.44;5094660;28;20058;-36
2022/01/20 02:58:25;;;;;;;11.50;2.70;;;;;;;3.43;100.00;102512.66;5096405;28;20028;-36
2022/01/20 03:00:51;;;;;;;15.50;3.37;;;;;;;3.48;100.00;102517.56;5095925;28;20377;-36
2022/01/20 03:03:17;;;;;;;14.38;2.28;;;;;;;3.51;100.00;102518.09;5095497;28;20023;-36
2022/01/20 03:05:42;;;;;;;13.63;2.90;;;;;;;3.50;100.00;102528.94;5095779;28;20174;-36
2022/01/20 03:08:07;;;;;;;8.47;2.40;;;;;;;3.47;100.00;102523.91;5095712;28;20032;-36
2022/01/20 03:10:33;;;;;;;9.60;2.90;;;;;;;3.47;100.00;102518.56;5095775;28;20035;-36
2022/01/20 03:12:58;;;;;;;12.33;2.17;;;;;;;3.46;100.00;102527.53;5094669;28;20491;-36
2022/01/20 03:15:24;;;;;;;10.87;2.20;;;;;;;3.38;100.00;102517.56;5095515;28;20282;-36
2022/01/20 03:17:50;;;;;;;;;;;;;;;3.48;100.00;102515.72;5096026;28;20028;-36
2022/01/20 03:20:15;;;;;;;12.07;1.92;;;;;;;3.43;100.00;102509.13;5095515;28;19908;-36
2022/01/20 03:22:41;;;;;;;12.27;2.30;;;;;;;3.32;100.00;102478.88;5095256;28;20027;-36
2022/01/20 03:25:06;;;;;;;15.60;2.60;;;;;;;3.40;100.00;102502.22;5095792;28;20024;-36
2022/01/20 03:27:32;;;;;;;16.73;2.88;;;;;;;3.42;100.00;102507.44;5094700;28;20020;-36
2022/01/20 03:29:57;;;;;;;12.50;2.30;;;;;;;3.43;100.00;102509.13;5094786;28;20028;-36
2022/01/20 03:32:22;;;;;;;21.23;3.37;;;;;;;3.43;100.00;102507.28;5094984;28;20032;-36
2022/01/20 03:34:48;;;;;;;12.17;3.17;;;;;;;3.42;100.00;102507.44;5095330;28;20063;-36
2022/01/20 03:37:13;;;;;;;13.90;2.20;;;;;;;3.44;100.00;102500.13;5094995;28;20032;-36
2022/01/20 03:39:39;;;;;;;15.90;2.73;;;;;;;3.33;100.00;102479.72;5095207;28;20477;-36
2022/01/20 03:42:04;;;;;;;10.10;2.17;;;;;;;3.34;100.00;102492.09;5094469;28;20524;-36
2022/01/20 03:44:29;;;;;;;12.13;2.33;;;;;;;3.44;100.00;102511.66;5094967;28;20268;-36
2022/01/20 03:46:57;;;;;;;15.27;2.63;;;;;;;3.44;100.00;102502.78;5094797;28;20024;-36
2022/01/20 03:49:39;;;;;;;15.27;2.80;;;;;;;3.42;100.00;102512.78;5095160;28;20020;-36
2022/01/20 03:52:06;;;;;;;17.98;2.80;;;;;;;3.29;100.00;102499.72;5094858;28;20039;-36
2022/01/20 03:54:32;;;;;;;13.90;2.53;;;;;;;3.36;100.00;102514.19;5095035;28;20031;-36
2022/01/20 03:56:57;;;;;;;12.70;2.40;;;;;;;3.35;100.00;102508.00;5094553;28;20484;-36
2022/01/20 03:59:22;;;;;;;16.13;3.10;;;;;;;3.31;100.00;102503.91;5095206;28;20039;-36
2022/01/20 04:01:48;;;;;;;13.90;2.60;;;;;;;3.32;100.00;102513.66;5094212;28;20103;-36
2022/01/20 04:04:13;;;;;;;13.88;2.83;;;;;;;3.34;100.00;102514.34;5094084;28;20047;-36
2022/01/20 04:06:39;;;;;;;16.50;3.40;;;;;;;3.35;100.00;102515.19;5094334;28;20111;-36
2022/01/20 04:09:05;;;;;;;18.03;2.93;;;;;;;3.36;100.00;102519.53;5093032;28;20147;-36
2022/01/20 04:11:31;;;;;;;14.32;2.45;;;;;;;3.35;100.00;102532.06;5094031;28;20524;-36
2022/01/20 04:13:57;;;;;;;10.63;2.10;;;;;;;3.37;100.00;102529.28;5094950;28;20060;-36
2022/01/20 04:16:39;;;;;;;15.30;2.58;;;;;;;3.39;100.00;102529.13;5094419;28;20115;-36
2022/01/20 04:19:10;;;;;;;18.02;2.55;;;;;;;3.35;100.00;102531.22;5094784;28;20050;-36
2022/01/20 04:21:37;;;;;;;11.75;2.17;;;;;;;3.40;100.00;102549.53;5094654;28;20060;-36
2022/01/20 04:24:04;;;;;;;14.95;2.90;;;;;;;3.41;100.00;102545.84;5094266;28;20375;-36
2022/01/20 04:26:30;;;;;;;15.18;2.90;;;;;;;3.31;100.00;102535.16;5093988;28;20099;-36
2022/01/20 04:28:56;;;;;;;12.50;2.20;;;;;;;3.41;100.00;102546.69;5094109;28;20143;-36
2022/01/20 04:31:26;;;;;;;13.68;2.88;;;;;;;3.34;100.00;102542.91;5093900;28;20043;-36
2022/01/20 04:33:53;;;;;;;16.40;2.70;;;;;;;3.32;100.00;102540.38;5094305;28;20101;-36
2022/01/20 04:36:18;;;;;;;15.85;2.85;;;;;;;3.41;100.00;102553.88;5093812;28;20028;-36
2022/01/20 04:38:44;;;;;;;13.83;3.20;;;;;;;3.31;100.00;102543.19;5093539;28;20032;-37
2022/01/20 04:41:10;;;;;;;17.95;3.58;;;;;;;3.30;100.00;102541.50;5094477;28;20684;-36
2022/01/20 04:43:36;;;;;;;10.02;2.17;;;;;;;3.37;100.00;102553.34;5093544;28;20027;-36
2022/01/20 04:46:09;;;;;;;17.60;3.28;;;;;;;3.18;100.00;102529.28;5093357;28;20028;-36
2022/01/20 04:57:17;;;;;;;11.18;2.05;;;;;;;3.41;100.00;102569.91;5031448;28;20041;-36
2022/01/20 04:59:44;;;;;;;13.15;2.40;;;;;;;3.42;100.00;102571.63;5030765;28;20034;-36
2022/01/20 05:02:10;;;;;;;19.77;2.72;;;;;;;3.33;100.00;102566.13;5031308;28;20056;-36
2022/01/20 05:04:36;;;;;;;11.85;2.35;;;;;;;3.34;99.86;102565.16;5031334;28;20120;-36
2022/01/20 05:07:02;;;;;;;12.90;2.00;;;;;;;3.38;100.00;102572.91;5030670;28;20453;-36
2022/01/20 05:09:28;;;;;;;;;;;;;;;3.48;100.00;102585.28;5031587;28;20039;-36
2022/01/20 05:12:03;;;;;;;14.07;2.55;;;;;;;3.49;100.00;102583.44;5030595;28;19909;-36
2022/01/20 05:14:29;;;;;;;13.18;2.28;;;;;;;3.48;100.00;102587.94;5030813;28;20488;-36
2022/01/20 05:16:55;;;;;;;12.43;2.08;;;;;;;3.48;100.00;102593.28;5030551;28;20112;-36
2022/01/20 05:19:30;;;;;;;;;;;;;;;3.54;100.00;102602.56;5031754;28;20041;-36
2022/01/20 05:21:56;;;;;;;10.57;2.28;;;;;;;3.48;100.00;102608.50;5031161;28;20004;-36
2022/01/20 05:24:22;;;;;;;10.98;2.22;;;;;;;3.47;100.00;102596.97;5030898;28;20033;-36
2022/01/20 05:26:52;;;;;;;14.43;2.80;;;;;;;3.52;100.00;102609.91;5037310;28;20460;-36
2022/01/20 05:29:19;;;;;;;12.10;2.65;;;;;;;3.50;100.00;102611.88;5093704;28;20044;-36
2022/01/20 05:31:44;;;;;;;12.63;2.65;;;;;;;3.53;100.00;102611.59;5092947;28;20079;-36
2022/01/20 05:34:09;;;;;;;12.57;2.60;;;;;;;3.53;100.00;102620.47;5093666;28;20055;-36
2022/01/20 05:36:35;;;;;;;11.70;2.83;;;;;;;3.49;100.00;102624.41;5092429;28;20452;-36
2022/01/20 05:39:00;;;;;;;10.23;2.83;;;;;;;3.48;100.00;102635.25;5092957;28;20059;-36
2022/01/20 05:41:25;;;;;;;12.00;2.30;;;;;;;3.28;100.00;102613.00;5093143;28;20025;-36
2022/01/20 05:43:51;;;;;;;14.27;2.40;;;;;;;3.38;100.00;102639.75;5093150;28;20035;-36
2022/01/20 05:46:21;;;;;;;11.17;2.43;;;;;;;3.38;100.00;102655.81;5092434;28;20120;-36
2022/01/20 05:48:48;;;;;;;15.40;2.50;;;;;;;3.36;100.00;102686.19;5092501;28;20024;-36
2022/01/20 05:51:15;;;;;;;13.75;2.78;;;;;;;3.22;100.00;102648.31;5093085;28;20368;-36
2022/01/20 05:53:40;;;;;;;;;;;;;;;3.33;100.00;102669.59;5093485;28;20027;-36
2022/01/20 05:56:06;;;;;;;12.27;2.15;;;;;;;3.19;100.00;102646.75;5093041;28;20000;-36
2022/01/20 05:58:36;;;;;;;12.07;3.47;;;;;;;3.18;100.00;102649.59;5093474;28;20437;-36
2022/01/20 06:01:04;;;;;;;12.00;2.35;;;;;;;3.26;100.00;102663.94;5092912;28;20384;-36
2022/01/20 06:03:38;;;;;;;11.57;2.53;;;;;;;3.15;100.00;102656.03;5092534;28;20032;-36
2022/01/20 06:06:05;;;;;;;12.55;2.63;;;;;;;3.25;100.00;102678.28;5092794;28;20431;-36
2022/01/20 06:08:33;;;;;;;9.80;2.00;;;;;;;3.29;100.00;102669.00;5092705;28;20043;-36
2022/01/20 06:10:58;;;;;;;9.85;2.13;;;;;;;3.28;100.00;102677.19;5092825;28;20055;-36
2022/01/20 06:13:24;;;;;;;12.68;2.53;;;;;;;3.29;100.00;102684.22;5092994;28;20054;-36
2022/01/20 06:15:49;;;;;;;16.90;2.80;;;;;;;3.21;99.81;102668.84;5093028;28;20479;-36
2022/01/20 06:18:15;;;;;;;14.47;3.13;;;;;;;3.30;99.60;102681.38;5092346;28;20024;-36
2022/01/20 06:20:40;;;;;;;16.33;3.17;;;;;;;3.32;98.47;102681.28;5092681;28;20107;-36
2022/01/20 06:23:07;;;;;;;11.53;3.10;;;;;;;3.32;97.86;102700.84;5092584;28;20366;-36
2022/01/20 06:25:33;;;;;;;14.82;2.78;;;;;;;3.23;95.26;102685.63;5092366;28;20020;-36
2022/01/20 06:27:58;;;;;;;16.08;2.78;;;;;;;3.35;96.17;102711.22;5092440;28;20103;-36
2022/01/20 06:30:27;;;;;;;20.45;3.22;;;;;;;3.28;96.08;102693.22;5092454;28;20039;-36
2022/01/20 06:32:53;;;;;;;19.77;4.07;;;;;;;3.36;94.14;102710.25;5092273;28;20461;-36
2022/01/20 06:35:18;;;;;;;;;;;;;;;3.40;95.70;102707.31;5093106;28;20051;-36
2022/01/20 06:37:44;;;;;;;19.40;3.63;;;;;;;3.25;93.86;102694.34;5092294;28;20339;-36
2022/01/20 06:40:10;;;;;;;12.53;3.33;;;;;;;3.35;94.05;102721.09;5093021;28;20103;-36
2022/01/20 06:42:36;;;;;;;;;;;;;;;3.39;95.19;102721.66;5092516;28;20031;-36
2022/01/20 06:45:06;;;;;;;16.88;3.35;;;;;;;3.31;92.44;102719.66;5092274;28;19912;-36
2022/01/20 06:47:32;;;;;;;15.57;2.67;;;;;;;3.31;91.44;102722.34;5092613;28;20437;-36
2022/01/20 06:49:57;;;;;;;15.07;3.25;;;;;;;3.30;91.31;102721.50;5095474;28;20064;-36
2022/01/20 06:52:23;;;;;;;15.10;3.83;;;;;;;3.27;89.23;102724.47;5095747;28;20464;-36
2022/01/20 06:54:48;;;;;;;20.03;2.63;;;;;;;3.22;89.41;102718.69;5096311;28;20035;-36
2022/01/20 06:57:13;;;;;;;15.47;4.10;;;;;;;3.32;87.67;102743.63;5095670;28;20379;-36
2022/01/20 06:59:39;;;;;;;17.13;4.40;;;;;;;3.33;87.30;102750.66;5096323;28;20542;-36
2022/01/20 07:02:04;;;;;;;12.17;2.93;;;;;;;3.31;86.95;102747.25;5096045;28;20055;-36
2022/01/20 07:04:32;;;;;;;15.87;3.20;;;;;;;3.32;84.97;102759.66;5095567;28;20593;-36
2022/01/20 07:06:57;;;;;;;19.88;3.42;;;;;;;3.29;86.45;102751.91;5095718;28;20062;-36
2022/01/20 07:09:23;;;;;;;17.00;4.05;;;;;;;3.27;85.63;102753.00;5095204;28;20111;-36
2022/01/20 07:11:48;;;;;;;13.55;4.05;;;;;;;3.10;84.81;102730.47;5095118;28;20031;-36
2022/01/20 07:14:14;;;;;;;14.73;3.00;;;;;;;3.16;84.90;102745.94;5095038;28;20111;-36
2022/01/20 07:16:39;;;;;;;14.18;3.05;;;;;;;3.13;86.09;102735.53;5095010;28;20030;-36
2022/01/20 07:19:05;;;;;;;15.63;3.47;;;;;;;3.21;85.17;102762.41;5094547;28;20023;-36
2022/01/20 07:21:30;;;;;;;20.03;3.43;;;;;;;3.21;83.66;102762.41;5095045;28;20493;-36
2022/01/20 07:23:55;;;;;;;16.07;2.93;;;;;;;3.23;83.51;102776.53;5095204;28;20028;-36
2022/01/20 07:26:21;;;;;;;18.10;3.17;;;;;;;3.13;82.84;102759.59;5095465;28;20031;-36
2022/01/20 07:28:46;;;;;;;12.18;3.47;;;;;;;3.19;83.10;102767.06;5095097;28;20058;-36
2022/01/20 07:31:12;;;;;;;14.63;4.20;;;;;;;3.14;82.79;102760.44;5095507;28;20114;-36
2022/01/20 07:33:37;;;;;;;11.00;2.77;;;;;;;3.22;82.66;102781.97;5095361;28;20098;-36
2022/01/20 07:36:06;;;;;;;12.70;3.07;;;;;;;3.24;83.45;102782.72;5094594;28;20032;-36
2022/01/20 07:38:31;;;;;;;17.13;3.20;;;;;;;3.25;81.40;102787.91;5094879;28;20028;-36
2022/01/20 07:40:57;;;;;;;21.23;3.20;;;;;;;3.25;81.61;102797.75;5094771;28;20032;-36
2022/01/20 07:43:22;;;;;;;21.00;4.05;;;;;;;3.26;80.90;102791.44;5094897;28;20024;-36
2022/01/20 07:45:48;;;;;;;10.43;2.57;;;;;;;3.26;81.44;102789.59;5094761;28;20103;-36
2022/01/20 07:48:13;;;;;;;15.07;3.08;;;;;;;3.26;81.21;102794.94;5094382;28;20468;-36
2022/01/20 07:50:39;;;;;;;17.23;3.53;;;;;;;3.28;80.86;102800.19;5094692;28;20383;-36
2022/01/20 07:53:04;;;;;;;13.37;3.63;;;;;;;3.28;77.93;102798.34;5094303;28;20027;-36
2022/01/20 07:55:30;;;;;;;13.33;3.37;;;;;;;3.29;78.00;102800.03;5094663;28;20036;-36
2022/01/20 07:57:56;;;;;;;13.38;2.28;;;;;;;3.30;79.24;102804.41;5095160;28;20032;-36
2022/01/20 08:00:22;;;;;;;11.50;2.78;;;;;;;3.29;78.91;102802.72;5094377;28;20039;-36
2022/01/20 08:02:47;;;;;;;12.98;3.58;;;;;;;3.19;81.27;102799.16;5095044;28;20027;-36
2022/01/20 08:05:13;;;;;;;17.27;4.03;;;;;;;3.27;78.54;102819.84;5095015;28;20028;-36
2022/01/20 08:07:38;;;;;;;13.90;2.57;;;;;;;3.31;77.67;102821.28;5095044;28;20436;-36
2022/01/20 08:10:05;;;;;;;15.23;2.63;;;;;;;3.21;80.25;102815.06;5094784;28;20120;-36
2022/01/20 08:12:30;;;;;;;;;;;;;;;3.38;80.69;102834.97;5094866;28;20305;-36
2022/01/20 08:14:56;;;;;;;11.65;2.42;;;;;;;3.33;78.21;102836.22;5094654;28;20292;-36
2022/01/20 08:17:21;;;;;;;;;;;;;;;3.36;80.06;102833.25;5094522;28;20110;-36
2022/01/20 08:19:49;;;;;;;12.57;2.97;;;;;;;3.34;79.07;102837.91;5094202;28;19987;-36
2022/01/20 08:22:15;;;;;;;15.35;3.20;;;;;;;3.36;79.97;102846.63;5093973;28;20277;-36
2022/01/20 08:24:41;;;;;;;17.88;3.35;;;;;;;3.36;79.45;102845.78;5094244;28;20020;-36
2022/01/20 08:27:07;;;;;;;13.15;3.30;;;;;;;3.32;80.64;102847.91;5094399;28;20185;-36
2022/01/20 08:29:32;;;;;;;14.07;2.47;;;;;;;3.31;80.50;102842.69;5094300;28;20448;-36
2022/01/20 08:31:58;;;;;;;15.47;4.17;;;;;;;3.35;80.41;102863.66;5093894;28;20048;-36
2022/01/20 08:34:23;;;;;;;12.67;2.90;;;;;;;3.37;82.01;102866.22;5093541;28;20032;-36
2022/01/20 08:36:50;;;;;;;14.67;2.93;;;;;;;3.28;82.39;102853.66;5093719;28;20120;-36
2022/01/20 08:41:57;;;;;;;15.82;2.83;;;;;;;3.35;82.51;102862.81;5094457;28;20032;-36
2022/01/20 08:44:22;;;;;;;10.70;2.53;;;;;;;3.35;82.34;102870.84;5094020;28;20035;-36
2022/01/20 08:46:48;;;;;;;15.33;3.47;;;;;;;3.34;82.92;102870.00;5093566;28;20104;-36
2022/01/20 08:49:14;;;;;;;9.23;2.40;;;;;;;3.27;83.23;102868.84;5093292;28;20031;-36
2022/01/20 08:51:40;;;;;;;12.90;3.20;;;;;;;3.29;83.92;102869.56;5093804;28;20020;-36
2022/01/20 08:54:05;;;;;;;18.13;3.55;;;;;;;3.39;84.38;102888.31;5093968;28;20082;-36
2022/01/20 08:56:34;;;;;;;17.20;3.30;;;;;;;3.31;84.75;102880.97;5093271;28;20427;-36
2022/01/20 08:59:00;;;;;;;18.17;3.35;;;;;;;3.37;83.73;102887.63;5093646;28;20032;-36
2022/01/20 09:01:25;;;;;;;12.07;2.72;;;;;;;3.41;85.12;102890.84;5093600;28;20035;-36
2022/01/20 09:03:50;;;;;;;13.30;3.17;;;;;;;3.43;85.19;102896.94;5093508;28;20043;-36
2022/01/20 09:06:16;;;;;;;12.10;2.47;;;;;;;3.35;85.02;102884.22;5093774;28;20027;-36
2022/01/20 09:08:41;;;;;;;10.37;2.77;;;;;;;3.44;85.48;102904.81;5093453;28;20421;-36
2022/01/20 09:11:17;;;;;;;10.27;2.63;;;;;;;3.36;84.79;102885.91;5092507;28;20035;-36
2022/01/20 09:16:26;;;;;;;14.40;3.13;;;;;;;3.44;85.08;102907.50;5093703;28;20567;-36
2022/01/20 09:18:52;;;;;;;9.07;3.03;;;;;;;3.47;86.45;102906.41;5093041;28;20055;-36
2022/01/20 09:21:21;;;;;;;16.83;3.00;;;;;;;3.39;86.45;102891.00;5093622;28;20068;-36
2022/01/20 09:23:47;;;;;;;10.52;3.08;;;;;;;3.49;86.84;102910.59;5092864;28;20032;-36
2022/01/20 09:26:12;;;;;;;10.75;3.15;;;;;;;3.40;86.32;102897.19;5093644;28;20115;-36
2022/01/20 09:28:37;;;;;;;9.83;2.13;;;;;;;3.40;86.03;102899.88;5093316;28;20476;-36
2022/01/20 09:31:03;;;;;;;11.07;2.07;;;;;;;3.41;85.58;102909.56;5092759;28;20020;-36
2022/01/20 09:33:29;;;;;;;12.70;3.00;;;;;;;3.38;85.15;102909.88;5093008;28;20429;-36
2022/01/20 09:35:56;;;;;;;12.95;3.35;;;;;;;3.40;86.10;102902.53;5091705;28;20266;-36
2022/01/20 09:38:22;;;;;;;12.48;2.30;;;;;;;3.51;85.51;102897.09;5091760;28;20096;-36
2022/01/20 09:40:49;;;;;;;8.93;3.05;;;;;;;3.64;85.92;102892.38;5093193;28;20032;-36
2022/01/20 09:43:15;;;;;;;9.10;2.38;;;;;;;3.81;85.63;102888.22;5092793;28;20024;-36
2022/01/20 09:45:41;;;;;;;12.15;3.28;;;;;;;3.95;85.26;102897.66;5093149;28;20461;-36
2022/01/20 09:48:06;;;;;;;12.95;3.00;;;;;;;3.99;85.29;102897.25;5093370;28;20036;-36
2022/01/20 09:50:32;;;;;;;12.82;3.03;;;;;;;4.02;84.95;102906.84;5093471;28;20031;-36
2022/01/20 09:53:00;;;;;;;10.68;2.40;;;;;;;3.99;85.35;102920.50;5092566;28;20487;-36
2022/01/20 09:55:27;;;;;;;17.80;3.53;;;;;;;3.80;84.97;102908.75;5093053;28;20123;-36
2022/01/20 09:57:52;;;;;;;12.40;2.15;;;;;;;3.86;84.79;102926.97;5093140;28;20375;-36
2022/01/20 10:00:18;;;;;;;13.03;3.07;;;;;;;3.79;84.78;102931.16;5093533;28;20036;-36
2022/01/20 10:02:55;;;;;;;11.77;3.00;;;;;;;3.85;84.29;102935.09;5092814;28;20056;-36
2022/01/20 10:05:25;;;;;;;10.65;3.53;;;;;;;4.02;84.74;102955.03;5093079;28;20083;-36
2022/01/20 10:07:50;;;;;;;14.65;2.40;;;;;;;4.07;83.94;102960.84;5092606;28;20024;-36
2022/01/20 10:10:15;;;;;;;11.03;2.63;;;;;;;4.11;83.81;102954.22;5092878;28;20032;-36
2022/01/20 10:12:41;;;;;;;11.87;2.50;;;;;;;3.98;84.48;102922.34;5092532;28;20028;-36
2022/01/20 10:15:10;;;;;;;10.07;2.20;;;;;;;4.19;82.95;102951.69;5093132;28;20036;-36
2022/01/20 10:17:36;;;;;;;11.00;2.75;;;;;;;4.22;83.19;102951.44;5092685;28;20028;-36
2022/01/20 10:20:06;;;;;;;13.43;2.73;;;;;;;4.26;84.78;102949.31;5092770;28;20115;-36
2022/01/20 10:22:35;;;;;;;14.10;3.58;;;;;;;4.33;81.51;102966.53;5093979;28;20060;-36
2022/01/20 10:25:04;;;;;;;17.15;3.20;;;;;;;4.32;81.12;102963.00;5096361;28;20036;-36
2022/01/20 10:27:32;;;;;;;13.60;3.10;;;;;;;4.36;79.80;102976.97;5096264;28;20078;-36
2022/01/20 10:30:06;;;;;;;14.65;2.70;;;;;;;4.44;80.26;102978.94;5096075;28;20106;-36
2022/01/20 10:32:42;;;;;;;14.50;4.25;;;;;;;4.55;80.21;102978.84;5096760;28;20028;-36
2022/01/20 10:35:12;;;;;;;12.03;2.50;;;;;;;4.63;78.73;102985.16;5096158;28;20028;-36
2022/01/20 10:37:40;;;;;;;13.40;2.85;;;;;;;4.68;79.08;102967.84;5096907;28;20089;-36
2022/01/20 10:40:12;;;;;;;10.18;3.00;;;;;;;4.77;77.03;102983.06;5096270;28;20480;-37
2022/01/20 10:42:40;;;;;;;11.88;2.63;;;;;;;4.73;77.14;102979.81;5095573;28;20024;-37
2022/01/20 10:45:06;;;;;;;10.43;2.45;;;;;;;4.55;76.61;102968.97;5095628;28;20019;-37
2022/01/20 10:47:36;;;;;;;11.73;3.40;;;;;;;4.59;75.58;102991.81;5095793;28;20483;-36
2022/01/20 10:50:17;;;;;;;16.45;4.07;;;;;;;4.51;75.61;102986.31;5095543;28;20032;-37
2022/01/20 10:52:44;;;;;;;10.35;3.28;;;;;;;4.39;73.76;102985.59;5095821;28;20035;-36
2022/01/20 10:55:38;;;;;;;20.17;3.28;;;;;;;4.44;75.85;102987.84;5096225;28;20118;-36
2022/01/20 10:58:22;;;;;;;14.98;2.92;;;;;;;4.41;73.42;102976.56;5073411;28;20154;-36
2022/01/20 11:00:56;;;;;;;15.93;3.33;;;;;;;4.42;74.28;102984.44;5073173;28;20037;-36
2022/01/20 11:03:23;;;;;;;11.38;2.17;;;;;;;4.39;73.78;102974.88;5073035;28;20397;-36
2022/01/20 11:05:51;;;;;;;14.15;2.90;;;;;;;4.50;76.38;102987.28;5072844;28;20039;-36
2022/01/20 11:08:17;;;;;;;11.43;2.83;;;;;;;4.35;75.37;102962.75;5073337;28;20037;-36
2022/01/20 11:10:43;;;;;;;12.88;2.78;;;;;;;4.51;74.03;102998.84;5072903;28;20492;-36
2022/01/20 11:13:14;;;;;;;15.82;4.13;;;;;;;4.47;74.47;102992.06;5072629;28;20040;-36
2022/01/20 11:15:40;;;;;;;12.82;3.47;;;;;;;4.41;73.90;103008.72;5073153;28;20118;-36
2022/01/20 11:18:08;;;;;;;15.27;2.80;;;;;;;4.32;73.93;102979.06;5072555;28;20020;-35
2022/01/20 11:20:48;;;;;;;15.48;2.58;;;;;;;4.53;76.22;102991.50;5072702;28;20024;-35
2022/01/20 11:23:14;;;;;;;20.63;2.88;;;;;;;4.73;72.92;102982.50;5072672;28;20222;-36
2022/01/20 11:25:43;;;;;;;9.15;2.35;;;;;;;4.96;74.74;102995.63;5072476;28;20544;-36
2022/01/20 11:28:26;;;;;;;10.57;2.60;;;;;;;4.98;73.61;102991.84;5072338;28;20087;-36
2022/01/20 11:31:06;;;;;;;13.50;2.50;;;;;;;4.74;72.22;102960.09;5073130;28;20435;-36
2022/01/20 11:33:32;;;;;;;13.43;3.92;;;;;;;4.86;71.67;102975.03;5072486;28;20025;-36
2022/01/20 11:35:59;;;;;;;9.02;2.92;;;;;;;4.91;71.18;102979.97;5074611;28;20098;-36
2022/01/20 11:38:42;;;;;;;18.58;3.13;;;;;;;4.94;72.47;102976.19;5075006;28;20441;-36
2022/01/20 11:41:08;;;;;;;10.82;2.72;;;;;;;4.91;70.83;102972.78;5074631;28;20029;-36
2022/01/20 11:43:43;;;;;;;7.40;2.50;;;;;;;4.88;72.77;102974.88;5074460;28;20044;-36
2022/01/20 11:46:13;;;;;;;15.55;3.13;;;;;;;4.83;72.18;102971.78;5074559;28;20041;-36
2022/01/20 11:49:02;;;;;;;16.63;3.10;;;;;;;4.81;72.87;102966.56;5074331;28;20468;-36
2022/01/20 11:51:41;;;;;;;12.63;2.47;;;;;;;4.75;71.95;102964.47;5073779;28;20059;-36
2022/01/20 11:54:07;;;;;;;9.73;1.83;;;;;;;4.67;72.31;102966.97;5074773;28;20457;-36
2022/01/20 11:56:38;;;;;;;13.40;2.83;;;;;;;4.76;72.29;102982.22;5074345;28;20032;-36
2022/01/20 11:59:06;;;;;;;13.95;2.58;;;;;;;4.76;71.14;102978.72;5074440;28;20089;-36
2022/01/20 12:01:48;;;;;;;17.75;3.42;;;;;;;4.79;71.37;102976.59;5074155;28;20036;-36
2022/01/20 12:04:15;;;;;;;10.73;2.50;;;;;;;4.84;70.19;102977.03;5074693;28;20024;-36
2022/01/20 12:06:45;;;;;;;10.57;2.03;;;;;;;4.81;70.96;102974.63;5074058;28;20036;-36
2022/01/20 12:09:11;;;;;;;15.75;2.78;;;;;;;4.95;71.65;102962.63;5073733;28;20032;-36
2022/01/20 12:11:42;;;;;;;13.57;2.72;;;;;;;5.01;69.78;102953.16;5073933;28;20059;-37
2022/01/20 12:14:09;;;;;;;12.88;2.85;;;;;;;5.22;69.75;102959.22;5074635;28;20071;-36
2022/01/20 12:16:36;;;;;;;12.02;2.20;;;;;;;5.07;67.81;102933.81;5073826;28;20024;-36
2022/01/20 12:19:04;;;;;;;9.90;2.47;;;;;;;5.09;69.03;102948.78;5074400;28;20032;-36
2022/01/20 12:21:30;;;;;;;10.30;2.60;;;;;;;5.04;68.57;102937.63;5074201;28;20029;-36
2022/01/20 12:23:57;;;;;;;8.30;2.00;;;;;;;4.90;67.12;102938.91;5073828;28;20028;-36
2022/01/20 12:26:23;;;;;;;13.43;2.78;;;;;;;4.89;65.81;102939.91;5073641;28;20059;-36
2022/01/20 12:29:00;;;;;;;7.68;2.38;;;;;;;4.89;66.52;102944.44;5082212;28;20093;-36
2022/01/20 12:31:26;;;;;;;11.60;2.45;;;;;;;4.83;66.25;102951.22;5094086;28;20032;-36
2022/01/20 12:33:53;;;;;;;11.53;1.80;;;;;;;4.85;68.31;102948.38;5093791;28;20057;-36
2022/01/20 12:36:19;;;;;;;10.45;2.20;;;;;;;4.81;68.24;102955.84;5093732;28;20269;-36